Aérodrome :
LOGIN :

S'inscrire | Disclaimer

   EN    FR    IT 

 










Légende :    VFR   VFR Marginal   IFR   IFR Intensif   IFR Très Intensif
Visi : 
Plafond : 
>= 8 km
>= 3000ft
5 à 8 km
1000 à 3000 ft
1500m à 5 km
500 à 1000 ft
800 à 1500m
200 à 500 ft
< 800m
< 200 ft
Symboles :   Orages  Brouillard  Fortes neiges  Fortes précipitations  Vent > 20 kt
SIGMETs :   Divers  Orages  Givrage  Turbulence  Onde Orograph.  Cendres Volcan.






- Altitude de l'aérodrome : 20 ft


EBFN - Koksijde

DERNIER METAR :
  • 211455Z AUTO 02016KT 9999 FEW032/// 11/03 Q1026 BLU

METARs EXPIRÉS :
  • 211425Z AUTO 03018KT 9999 FEW031/// 10/02 Q1026 BLU
  • 211355Z AUTO 02018KT 9999 SCT031/// 10/03 Q1026 BLU
  • 211325Z AUTO 02017KT 9999 SCT031/// 10/03 Q1026 BLU
  • 211255Z AUTO 02018KT 9999 SCT037/// 10/03 Q1026 BLU
  • 211225Z AUTO 03018KT 9999 BKN032/// 09/03 Q1026 BLU
  • 211155Z AUTO 03018KT 9999 SCT030/// 10/03 Q1026 BLU
  • 211125Z AUTO 04018KT 9000 -RA SCT031/// 10/02 Q1026 BLU
  • 211055Z AUTO 03021G32KT 9999 -DZ FEW033/// 10/02 Q1026 BLU
  • 211025Z AUTO 03019KT 9999 NCD 09/02 Q1026 BLU

TAF TAF EBFN
Valide du 21 à 13h jusqu'au 21 à 22h UTC


211141Z 2113/2122 35015G25KT 9999 SCT030 BKN040
PROB40
TEMPO 2113/2116 35020G30KT BY EBWM



MET'MAP, la Météo Aéronautique d'un coup d'oeil ! - Copyright ORBIFLY Décembre 2007 - Disclaimer

ORBIFLY MET'MAP TEAM :

Programmation & Développement : Alexandra Zaïnal
Sur une idée originale de : Baudouin d'Aumeries
Soutien technique & logistique : Manuel Goepfert
Assistance : Marc-Olivier Méhu




SOURCES & CREDITS :

   NOAA